Time;durP1;ratioP1;P1;durP2;ratioP2;P2;SDS_P1;SDS_P2;PMS_P1;PMS_P2;Temp;Humidity;BMP_temperature;BMP_pressure;BME280_temperature;BME280_humidity;BME280_pressure;Samples;Min_cycle;Max_cycle;Signal;HPM_P1;HPM_P2
2022/08/02 00:02:38;;;;;;;2.28;1.52;;;24.20;71.80;;;;;;10057397;28;20117;-59
2022/08/02 00:07:29;;;;;;;2.13;1.30;;;24.20;72.70;;;;;;10050643;28;20021;-58
2022/08/02 00:12:20;;;;;;;1.20;1.10;;;24.10;73.60;;;;;;10067217;28;20261;-58
2022/08/02 00:17:10;;;;;;;2.97;1.30;;;23.90;74.60;;;;;;10070324;28;20919;-60
2022/08/02 00:22:01;;;;;;;2.17;1.25;;;23.90;75.60;;;;;;10070806;28;20049;-58
2022/08/02 00:26:52;;;;;;;2.55;1.63;;;23.80;75.90;;;;;;10055589;28;20212;-58
2022/08/02 00:31:42;;;;;;;1.70;1.00;;;23.70;76.80;;;;;;10057111;28;20041;-57
2022/08/02 00:36:33;;;;;;;1.60;1.10;;;23.40;77.90;;;;;;10058836;28;20036;-58
2022/08/02 00:41:23;;;;;;;1.73;1.20;;;23.50;78.30;;;;;;10061137;28;20029;-57
2022/08/02 00:46:16;;;;;;;1.35;1.00;;;23.50;78.40;;;;;;10072682;28;20135;-57
2022/08/02 00:51:07;;;;;;;2.45;1.10;;;23.60;78.60;;;;;;10055326;28;20065;-56
2022/08/02 00:55:57;;;;;;;2.78;0.98;;;23.20;79.30;;;;;;10071384;28;20040;-58
2022/08/02 01:00:48;;;;;;;1.75;1.08;;;23.00;80.00;;;;;;10070910;28;20286;-59
2022/08/02 01:05:40;;;;;;;1.25;0.82;;;23.00;80.40;;;;;;10064827;28;20114;-59
2022/08/02 01:10:30;;;;;;;1.13;0.85;;;23.10;80.40;;;;;;10068726;28;20360;-59
2022/08/02 01:15:22;;;;;;;0.88;0.77;;;23.10;80.90;;;;;;10074160;28;20045;-59
2022/08/02 01:20:18;;;;;;;1.10;0.90;;;23.10;81.20;;;;;;10062245;28;20527;-59
2022/08/02 01:25:18;;;;;;;1.17;1.08;;;23.10;81.70;;;;;;10064196;28;20116;-59
2022/08/02 01:30:10;;;;;;;2.78;1.30;;;23.20;81.70;;;;;;10066367;28;20045;-61
2022/08/02 01:35:12;;;;;;;3.08;1.27;;;22.80;82.40;;;;;;10064188;28;20048;-59
2022/08/02 01:40:08;;;;;;;1.70;1.33;;;23.00;83.20;;;;;;10068202;28;20335;-59
2022/08/02 01:45:01;;;;;;;2.38;1.60;;;22.90;83.30;;;;;;10069884;28;20075;-59
2022/08/02 01:49:56;;;;;;;1.90;1.48;;;23.00;83.60;;;;;;10060980;28;20042;-62
2022/08/02 01:55:12;;;;;;;2.22;1.10;;;23.00;83.80;;;;;;10055721;28;20244;-60
2022/08/02 02:00:06;;;;;;;3.70;1.30;;;22.90;84.40;;;;;;10070858;28;20036;-59
2022/08/02 02:04:58;;;;;;;2.27;1.20;;;22.90;84.40;;;;;;10066456;28;20427;-59
2022/08/02 02:09:50;;;;;;;1.83;1.20;;;22.60;84.90;;;;;;10059968;28;20133;-59
2022/08/02 02:14:43;;;;;;;3.22;1.70;;;22.50;85.90;;;;;;10067343;28;20128;-60
2022/08/02 02:19:36;;;;;;;2.45;1.65;;;22.60;85.70;;;;;;10061546;28;20293;-59
2022/08/02 02:24:27;;;;;;;2.80;1.40;;;22.40;86.30;;;;;;10059741;28;20037;-58
2022/08/02 02:29:20;;;;;;;3.33;1.45;;;22.40;86.50;;;;;;10071734;28;20045;-60
2022/08/02 02:34:15;;;;;;;2.55;1.40;;;22.20;87.30;;;;;;10056148;28;20037;-60
2022/08/02 02:39:09;;;;;;;1.77;1.20;;;22.20;87.60;;;;;;10068261;28;20030;-57
2022/08/02 02:44:01;;;;;;;2.55;1.02;;;22.20;87.60;;;;;;10067842;28;20030;-58
2022/08/02 02:48:53;;;;;;;2.08;1.27;;;22.20;88.00;;;;;;10066849;28;20214;-57
2022/08/02 02:53:45;;;;;;;1.40;1.13;;;22.10;88.90;;;;;;10060826;28;20056;-57
2022/08/02 02:58:37;;;;;;;3.17;1.42;;;21.90;89.50;;;;;;10067961;28;20045;-61
2022/08/02 03:03:29;;;;;;;1.77;1.45;;;21.90;89.90;;;;;;10064159;28;20116;-58
2022/08/02 03:08:21;;;;;;;2.80;1.40;;;22.00;89.90;;;;;;10062147;28;20051;-61
2022/08/02 03:13:12;;;;;;;4.35;1.48;;;22.00;90.00;;;;;;10053706;28;20073;-58
2022/08/02 03:18:03;;;;;;;2.47;1.63;;;22.00;90.20;;;;;;10052407;28;20314;-57
2022/08/02 03:22:54;;;;;;;3.22;1.67;;;22.00;90.40;;;;;;10050098;28;20089;-58
2022/08/02 03:27:45;;;;;;;2.60;1.42;;;22.00;90.60;;;;;;10061862;28;20022;-58
2022/08/02 03:32:37;;;;;;;1.77;1.55;;;22.00;90.60;;;;;;10067426;28;20263;-60
2022/08/02 03:37:30;;;;;;;4.35;1.55;;;21.90;90.80;;;;;;10056919;28;20084;-59
2022/08/02 03:42:22;;;;;;;4.93;1.40;;;21.90;90.90;;;;;;10071094;28;20447;-58
2022/08/02 03:47:13;;;;;;;2.08;1.30;;;21.90;91.10;;;;;;10071301;28;20024;-58
2022/08/02 03:52:05;;;;;;;1.70;1.45;;;22.00;91.20;;;;;;10065248;28;20045;-59
2022/08/02 03:56:56;;;;;;;2.30;1.38;;;22.10;91.30;;;;;;10071166;28;20033;-58
2022/08/02 04:01:47;;;;;;;2.47;1.63;;;22.10;91.30;;;;;;10067301;28;20108;-58
2022/08/02 04:06:37;;;;;;;2.92;1.35;;;22.10;91.40;;;;;;10061614;28;20053;-59
2022/08/02 04:11:31;;;;;;;2.40;1.67;;;22.10;91.40;;;;;;10061963;28;20072;-58
2022/08/02 04:16:33;;;;;;;1.92;1.40;;;22.20;91.50;;;;;;10054795;28;20154;-58
2022/08/02 04:21:27;;;;;;;2.33;1.58;;;22.20;91.70;;;;;;10057176;28;20041;-56
2022/08/02 04:26:18;;;;;;;2.07;1.37;;;22.30;91.70;;;;;;10052016;28;20020;-58
2022/08/02 04:31:09;;;;;;;2.15;1.20;;;22.40;91.70;;;;;;10058536;28;20154;-58
2022/08/02 04:36:00;;;;;;;3.58;1.38;;;22.50;91.70;;;;;;10051928;28;20037;-59
2022/08/02 04:40:54;;;;;;;2.20;1.48;;;22.50;91.90;;;;;;10073771;28;20036;-57
2022/08/02 04:45:47;;;;;;;1.95;1.52;;;22.50;92.10;;;;;;10046738;28;20308;-58
2022/08/02 04:50:37;;;;;;;2.47;1.52;;;22.50;92.10;;;;;;10062463;28;20083;-58
2022/08/02 04:55:28;;;;;;;1.90;1.30;;;22.50;92.20;;;;;;10065702;28;20261;-62
2022/08/02 05:00:20;;;;;;;2.63;2.25;;;22.60;92.40;;;;;;10075596;28;20129;-59
2022/08/02 05:05:10;;;;;;;2.38;1.55;;;22.50;92.40;;;;;;10064918;28;20309;-59
2022/08/02 05:10:01;;;;;;;4.70;1.23;;;22.50;92.60;;;;;;10078514;28;20069;-60
2022/08/02 05:14:52;;;;;;;2.45;1.10;;;22.50;92.50;;;;;;10063655;28;20108;-63
2022/08/02 05:19:42;;;;;;;2.13;1.25;;;22.50;92.60;;;;;;10075412;28;20018;-59
2022/08/02 05:24:33;;;;;;;4.68;1.75;;;22.70;92.60;;;;;;10067694;28;20029;-58
2022/08/02 05:29:23;;;;;;;1.65;1.10;;;22.60;92.70;;;;;;10052215;28;20041;-59
2022/08/02 05:34:14;;;;;;;1.45;1.02;;;22.60;92.60;;;;;;10070247;28;20068;-58
2022/08/02 05:39:05;;;;;;;2.55;1.50;;;22.70;92.70;;;;;;10075663;28;20106;-59
2022/08/02 05:43:56;;;;;;;2.50;1.75;;;22.80;92.60;;;;;;10069465;28;20041;-59
2022/08/02 05:48:46;;;;;;;2.45;1.50;;;22.70;92.70;;;;;;10047767;28;20030;-61
2022/08/02 05:53:47;;;;;;;3.30;1.45;;;22.60;92.50;;;;;;10071126;28;20046;-58
2022/08/02 05:58:57;;;;;;;3.67;1.27;;;22.50;92.80;;;;;;10060267;28;20207;-58
2022/08/02 06:03:51;;;;;;;2.45;1.33;;;22.70;92.50;;;;;;10073114;28;20037;-60
2022/08/02 06:08:49;;;;;;;3.75;1.50;;;22.90;92.30;;;;;;10068241;28;20270;-59
2022/08/02 06:13:41;;;;;;;2.88;1.80;;;22.60;92.50;;;;;;10061706;28;20510;-59
2022/08/02 06:18:32;;;;;;;5.53;1.50;;;22.50;92.70;;;;;;10055178;28;20025;-61
2022/08/02 06:23:25;;;;;;;3.45;1.45;;;22.50;92.80;;;;;;10054883;28;20344;-60
2022/08/02 06:28:18;;;;;;;2.65;1.52;;;22.90;92.50;;;;;;10062785;28;20036;-59
2022/08/02 06:33:11;;;;;;;2.58;1.70;;;23.00;92.30;;;;;;10058787;28;20030;-67
2022/08/02 06:38:02;;;;;;;3.55;1.63;;;23.20;92.20;;;;;;10053483;28;20095;-64
2022/08/02 06:43:19;;;;;;;5.55;2.00;;;23.10;92.50;;;;;;10054715;28;20033;-65
2022/08/02 06:48:10;;;;;;;3.72;1.70;;;23.10;92.50;;;;;;10055207;28;20032;-65
2022/08/02 06:53:01;;;;;;;3.63;1.92;;;23.10;92.70;;;;;;10076721;28;20073;-64
2022/08/02 06:57:51;;;;;;;2.60;1.77;;;23.20;92.60;;;;;;10063447;28;20064;-64
2022/08/02 07:02:42;;;;;;;3.60;1.65;;;23.20;92.50;;;;;;10064667;28;20041;-62
2022/08/02 07:07:33;;;;;;;4.68;1.70;;;23.30;92.50;;;;;;10065119;28;20028;-64
2022/08/02 07:12:24;;;;;;;2.50;1.58;;;23.40;92.40;;;;;;10058994;28;20043;-65
2022/08/02 07:17:15;;;;;;;3.78;1.73;;;23.50;92.20;;;;;;10051975;28;20046;-65
2022/08/02 07:22:06;;;;;;;4.15;1.83;;;23.70;92.20;;;;;;10052128;28;20095;-64
2022/08/02 07:26:57;;;;;;;2.97;2.03;;;23.70;92.10;;;;;;10051760;28;20459;-63
2022/08/02 07:31:48;;;;;;;3.83;1.92;;;23.90;92.20;;;;;;10053601;28;20385;-64
2022/08/02 07:36:39;;;;;;;1.85;1.55;;;24.20;91.80;;;;;;10050873;28;20026;-64
2022/08/02 07:41:29;;;;;;;6.72;1.52;;;24.60;91.60;;;;;;10052758;28;20119;-66
2022/08/02 07:46:20;;;;;;;4.07;2.25;;;24.90;91.30;;;;;;10072122;28;20029;-64
2022/08/02 07:51:11;;;;;;;3.03;1.80;;;25.40;91.00;;;;;;10070760;28;20381;-63
2022/08/02 07:56:01;;;;;;;2.60;2.00;;;25.80;90.60;;;;;;10067572;28;20040;-65
2022/08/02 08:00:52;;;;;;;2.97;1.40;;;25.90;90.60;;;;;;10049814;28;20504;-66
2022/08/02 08:05:43;;;;;;;3.40;1.65;;;25.70;90.40;;;;;;10056235;28;20025;-65
2022/08/02 08:10:33;;;;;;;3.20;1.77;;;25.60;90.40;;;;;;10061473;28;20026;-65
2022/08/02 08:15:24;;;;;;;3.63;1.38;;;25.90;89.90;;;;;;10064801;28;20046;-63
2022/08/02 08:20:15;;;;;;;2.90;2.13;;;26.00;89.40;;;;;;10061682;28;20049;-62
2022/08/02 08:25:05;;;;;;;1.95;1.40;;;25.90;89.50;;;;;;10070625;28;20097;-65
2022/08/02 08:29:56;;;;;;;3.22;1.30;;;26.00;89.00;;;;;;10066350;28;20529;-64
2022/08/02 08:34:47;;;;;;;4.75;1.77;;;25.80;88.70;;;;;;10050637;28;20032;-65
2022/08/02 08:39:38;;;;;;;5.05;2.45;;;26.00;88.80;;;;;;10074968;28;20064;-67
2022/08/02 08:44:29;;;;;;;3.15;1.70;;;26.00;88.20;;;;;;10074286;28;20033;-65
2022/08/02 08:49:35;;;;;;;2.33;1.70;;;26.10;88.10;;;;;;10069089;28;20037;-65
2022/08/02 08:54:28;;;;;;;3.42;1.48;;;26.30;87.50;;;;;;10053187;28;20029;-62
2022/08/02 08:59:19;;;;;;;3.65;2.53;;;26.00;87.80;;;;;;10057482;28;20116;-65
2022/08/02 09:04:10;;;;;;;2.53;1.80;;;26.00;87.60;;;;;;10069590;28;20040;-64
2022/08/02 09:09:01;;;;;;;2.10;1.33;;;26.20;86.90;;;;;;10065417;28;20080;-64
2022/08/02 09:13:57;;;;;;;4.32;1.98;;;26.20;86.40;;;;;;10044865;28;20069;-64
2022/08/02 09:18:48;;;;;;;4.80;1.88;;;26.40;85.90;;;;;;10057952;28;20026;-63
2022/08/02 09:23:46;;;;;;;2.15;1.50;;;26.40;85.20;;;;;;10079881;28;20009;-63
2022/08/02 09:28:38;;;;;;;3.55;1.90;;;26.30;85.90;;;;;;10066307;28;20032;-65
2022/08/02 09:33:29;;;;;;;2.17;1.40;;;26.70;84.70;;;;;;10056314;28;20044;-66
2022/08/02 09:38:20;;;;;;;3.00;1.63;;;26.80;84.20;;;;;;10056353;28;20093;-65
2022/08/02 09:43:10;;;;;;;3.45;1.35;;;26.70;84.00;;;;;;10064351;28;20060;-65
2022/08/02 09:48:10;;;;;;;2.83;1.45;;;26.70;83.70;;;;;;10062241;28;20083;-66
2022/08/02 09:53:02;;;;;;;2.60;1.13;;;27.10;82.70;;;;;;10060572;28;20060;-64
2022/08/02 09:57:53;;;;;;;2.30;1.58;;;27.10;82.30;;;;;;10072885;28;20029;-63
2022/08/02 10:03:06;;;;;;;6.22;1.88;;;27.10;82.00;;;;;;10054723;28;20112;-63
2022/08/02 10:07:57;;;;;;;3.80;1.60;;;27.30;80.90;;;;;;10055664;28;20037;-63
2022/08/02 10:12:48;;;;;;;2.92;1.10;;;27.50;80.90;;;;;;10075303;28;20045;-66
2022/08/02 10:17:38;;;;;;;4.10;1.77;;;27.40;80.70;;;;;;10062260;28;20041;-65
2022/08/02 10:22:31;;;;;;;3.10;1.70;;;27.40;80.50;;;;;;10064675;28;20236;-59
2022/08/02 10:27:24;;;;;;;2.67;1.60;;;27.40;80.10;;;;;;10055320;28;20044;-65
2022/08/02 10:32:36;;;;;;;3.53;1.30;;;27.50;79.80;;;;;;10044213;28;20393;-64
2022/08/02 10:37:33;;;;;;;3.08;1.50;;;27.70;79.20;;;;;;10063311;28;20025;-63
2022/08/02 10:42:43;;;;;;;2.67;1.67;;;27.60;79.10;;;;;;10051877;28;20484;-60
2022/08/02 10:47:34;;;;;;;4.65;1.67;;;27.70;78.30;;;;;;10063276;28;20071;-61
2022/08/02 10:52:31;;;;;;;2.58;1.38;;;27.60;78.80;;;;;;10055779;28;20336;-61
2022/08/02 10:57:25;;;;;;;1.30;1.20;;;27.40;78.90;;;;;;10061472;28;20032;-61
2022/08/02 11:02:32;;;;;;;2.80;1.92;;;27.50;78.20;;;;;;10061800;28;20033;-61
2022/08/02 11:07:39;;;;;;;4.85;1.83;;;27.50;77.80;;;;;;10062840;28;20040;-60
2022/08/02 11:12:29;;;;;;;3.30;1.88;;;27.50;77.50;;;;;;10060404;28;20087;-61
2022/08/02 11:17:20;;;;;;;2.13;1.50;;;27.60;77.40;;;;;;10056065;28;20034;-62
2022/08/02 11:22:15;;;;;;;3.00;1.70;;;27.80;76.80;;;;;;10067849;28;20026;-61
2022/08/02 11:27:17;;;;;;;3.20;2.83;;;27.80;76.60;;;;;;10058325;28;20124;-63
2022/08/02 11:32:16;;;;;;;1.80;1.50;;;28.10;75.90;;;;;;10063038;28;20036;-63
2022/08/02 11:37:07;;;;;;;2.58;1.83;;;28.10;75.70;;;;;;10063863;28;20025;-60
2022/08/02 11:41:59;;;;;;;2.72;1.95;;;28.20;75.50;;;;;;10067559;28;20025;-61
2022/08/02 11:46:59;;;;;;;3.83;2.22;;;28.30;75.10;;;;;;10066391;28;20041;-61
2022/08/02 11:52:04;;;;;;;3.47;1.67;;;28.30;75.00;;;;;;10067218;28;20044;-63
2022/08/02 11:57:07;;;;;;;2.67;1.85;;;28.40;74.40;;;;;;10065130;28;20056;-62
2022/08/02 12:01:57;;;;;;;2.30;1.52;;;28.60;74.30;;;;;;10060861;28;20026;-61
2022/08/02 12:06:56;;;;;;;3.20;1.45;;;28.80;73.50;;;;;;10059354;28;20343;-61
2022/08/02 12:11:49;;;;;;;2.05;1.50;;;29.10;72.60;;;;;;10056269;28;20029;-65
2022/08/02 12:22:35;;;;;;;2.00;1.40;;;29.30;71.60;;;;;;10057864;28;20116;-64
2022/08/02 12:27:30;;;;;;;2.50;1.75;;;29.70;70.90;;;;;;10054566;28;20344;-67
2022/08/02 12:32:24;;;;;;;1.83;1.30;;;30.40;70.40;;;;;;10063831;28;20049;-63
2022/08/02 12:37:14;;;;;;;1.65;1.50;;;30.30;69.70;;;;;;10070288;28;20025;-65
2022/08/02 12:42:07;;;;;;;3.65;1.42;;;30.50;69.60;;;;;;10073296;28;20057;-65
2022/08/02 12:47:03;;;;;;;1.40;1.30;;;30.90;68.90;;;;;;10058674;28;20391;-62
2022/08/02 12:51:53;;;;;;;1.52;1.40;;;31.30;68.80;;;;;;10062262;28;20046;-62
2022/08/02 12:56:44;;;;;;;1.60;1.40;;;31.90;68.30;;;;;;10060726;28;20022;-63
2022/08/02 13:01:36;;;;;;;3.37;1.47;;;32.50;67.50;;;;;;10067064;28;20619;-64
2022/08/02 13:06:26;;;;;;;1.38;1.17;;;33.10;66.80;;;;;;10078750;28;20320;-66
2022/08/02 13:11:17;;;;;;;1.53;1.20;;;33.50;64.70;;;;;;10061960;28;20056;-65
2022/08/02 13:16:11;;;;;;;2.40;1.27;;;33.90;63.70;;;;;;10052354;28;20054;-66
2022/08/02 13:21:05;;;;;;;2.45;1.55;;;34.40;61.50;;;;;;10051368;28;20041;-65
2022/08/02 13:25:56;;;;;;;1.95;1.23;;;34.60;59.00;;;;;;10086411;28;20029;-66
2022/08/02 13:30:47;;;;;;;4.00;1.48;;;35.60;57.40;;;;;;10089646;28;20029;-66
2022/08/02 13:35:38;;;;;;;1.98;1.40;;;35.90;55.20;;;;;;10050289;28;20049;-66
2022/08/02 13:40:29;;;;;;;;;;;36.20;53.60;;;;;;10073805;28;20088;-65
2022/08/02 13:45:20;;;;;;;2.50;1.27;;;37.00;52.10;;;;;;10061433;28;20240;-66
2022/08/02 13:50:10;;;;;;;2.97;1.33;;;38.30;52.30;;;;;;10065156;28;20033;-66
2022/08/02 13:55:01;;;;;;;1.60;1.35;;;39.40;50.40;;;;;;10068097;28;20029;-65
2022/08/02 13:59:52;;;;;;;2.80;2.22;;;40.00;49.10;;;;;;10080891;28;20026;-67
2022/08/02 14:04:42;;;;;;;2.13;1.30;;;40.10;48.40;;;;;;10054795;28;20104;-63
2022/08/02 14:09:34;;;;;;;2.05;1.55;;;40.50;47.30;;;;;;10076148;28;20041;-62
2022/08/02 14:14:26;;;;;;;1.45;1.35;;;40.50;46.50;;;;;;10065426;28;20045;-67
2022/08/02 14:19:17;;;;;;;1.77;1.27;;;40.20;45.80;;;;;;10061796;28;20041;-62
2022/08/02 14:24:07;;;;;;;1.92;1.60;;;40.20;44.90;;;;;;10061364;28;20040;-64
2022/08/02 14:28:58;;;;;;;3.08;1.35;;;40.30;44.30;;;;;;10068357;28;20036;-66
2022/08/02 14:33:49;;;;;;;2.70;1.48;;;39.80;43.80;;;;;;10046425;28;20096;-66
2022/08/02 14:38:39;;;;;;;1.58;1.48;;;40.40;43.20;;;;;;10071139;28;20072;-64
2022/08/02 14:48:39;;;;;;;1.98;1.75;;;40.60;42.30;;;;;;10061797;28;20020;-67
2022/08/02 14:53:30;;;;;;;1.60;1.50;;;41.20;41.90;;;;;;10059966;28;20073;-64
2022/08/02 14:58:21;;;;;;;1.83;1.73;;;41.40;41.30;;;;;;10074749;28;20043;-62
2022/08/02 15:03:11;;;;;;;3.75;1.58;;;41.10;41.20;;;;;;10067305;28;20064;-61
2022/08/02 15:08:02;;;;;;;1.70;1.60;;;41.10;40.70;;;;;;10066290;28;20030;-60
2022/08/02 15:12:53;;;;;;;2.05;1.30;;;41.20;40.30;;;;;;10071758;28;20033;-61
2022/08/02 15:17:43;;;;;;;1.50;1.40;;;41.20;40.10;;;;;;10071361;28;20276;-62
2022/08/02 15:22:34;;;;;;;1.70;1.58;;;40.50;39.90;;;;;;10075664;28;20046;-62
2022/08/02 15:27:25;;;;;;;1.67;1.58;;;40.20;40.00;;;;;;10058613;28;20211;-64
2022/08/02 15:32:19;;;;;;;2.13;2.03;;;40.50;39.70;;;;;;10074237;28;20033;-64
2022/08/02 15:37:10;;;;;;;1.80;1.70;;;41.20;39.10;;;;;;10069382;28;20063;-61
2022/08/02 15:42:02;;;;;;;1.98;1.73;;;40.60;39.10;;;;;;10059250;28;20083;-62
2022/08/02 15:46:53;;;;;;;2.30;1.80;;;41.00;38.90;;;;;;10059633;28;20025;-61
2022/08/02 15:51:43;;;;;;;1.52;1.42;;;41.40;38.40;;;;;;10061702;28;20396;-64
2022/08/02 15:56:34;;;;;;;1.48;1.38;;;40.50;38.70;;;;;;10068802;28;20033;-63
2022/08/02 16:01:25;;;;;;;2.65;1.52;;;41.00;38.30;;;;;;10063861;28;20029;-62
2022/08/02 16:06:16;;;;;;;2.28;1.90;;;41.90;37.80;;;;;;10044768;28;20025;-63
2022/08/02 16:11:07;;;;;;;1.83;1.70;;;42.60;37.20;;;;;;10062360;28;20037;-62
2022/08/02 16:15:57;;;;;;;2.05;1.85;;;42.80;36.90;;;;;;10073616;28;20084;-63
2022/08/02 16:20:48;;;;;;;1.83;1.73;;;43.00;36.70;;;;;;10052938;28;20110;-61
2022/08/02 16:25:39;;;;;;;2.15;2.05;;;42.20;36.70;;;;;;10062155;28;20022;-62
2022/08/02 16:30:30;;;;;;;1.65;1.55;;;42.60;36.90;;;;;;10065363;28;20033;-62
2022/08/02 16:35:20;;;;;;;2.42;1.63;;;44.50;35.80;;;;;;10073466;28;20056;-61
2022/08/02 16:40:11;;;;;;;1.63;1.52;;;44.90;35.60;;;;;;10057244;28;20033;-60
2022/08/02 16:45:02;;;;;;;1.58;1.48;;;45.00;35.20;;;;;;10069368;28;20064;-62
2022/08/02 16:49:53;;;;;;;2.08;1.73;;;44.20;35.30;;;;;;10057644;28;20103;-60
2022/08/02 16:54:43;;;;;;;4.95;1.83;;;44.50;34.90;;;;;;10058102;28;20072;-62
2022/08/02 16:59:34;;;;;;;2.38;1.80;;;43.70;35.10;;;;;;10086100;28;20033;-61
2022/08/02 17:04:25;;;;;;;2.95;1.73;;;44.20;34.60;;;;;;10070621;28;20291;-61
2022/08/02 17:09:16;;;;;;;3.13;2.00;;;44.30;34.20;;;;;;10060080;28;20040;-62
2022/08/02 17:14:06;;;;;;;1.90;1.65;;;44.70;33.90;;;;;;10066751;28;20243;-61
2022/08/02 17:18:58;;;;;;;2.15;2.00;;;44.80;33.60;;;;;;10065676;28;20455;-61
2022/08/02 17:23:49;;;;;;;2.95;1.95;;;43.50;34.10;;;;;;10073092;28;20053;-62
2022/08/02 17:28:40;;;;;;;;;;;42.30;34.60;;;;;;10070206;28;20044;-64
2022/08/02 17:33:31;;;;;;;2.03;1.70;;;41.20;35.40;;;;;;10064556;28;20262;-61
2022/08/02 17:38:21;;;;;;;1.83;1.63;;;40.60;35.60;;;;;;10081305;28;20061;-62
2022/08/02 17:43:12;;;;;;;3.45;2.17;;;38.20;37.20;;;;;;10063251;28;20053;-63
2022/08/02 17:48:03;;;;;;;3.47;1.88;;;36.60;38.20;;;;;;10064155;28;20037;-64
2022/08/02 17:52:54;;;;;;;5.22;2.15;;;35.70;38.80;;;;;;10052079;28;20053;-62
2022/08/02 17:57:44;;;;;;;3.60;2.00;;;35.10;39.20;;;;;;10072934;28;20097;-62
2022/08/02 18:02:35;;;;;;;3.78;2.08;;;34.70;39.60;;;;;;10057151;28;20029;-61
2022/08/02 18:07:26;;;;;;;3.90;2.22;;;34.30;39.90;;;;;;10071836;28;20101;-61
2022/08/02 18:12:17;;;;;;;4.93;2.33;;;34.10;40.20;;;;;;10074859;28;20041;-61
2022/08/02 18:17:07;;;;;;;4.10;2.08;;;33.90;40.30;;;;;;10061470;28;20054;-63
2022/08/02 18:22:01;;;;;;;3.45;1.73;;;33.80;40.50;;;;;;10063859;28;20099;-61
2022/08/02 18:26:51;;;;;;;2.70;1.80;;;33.50;40.80;;;;;;10062923;28;20026;-61
2022/08/02 18:31:42;;;;;;;3.05;2.45;;;33.40;41.10;;;;;;10058451;28;20041;-61
2022/08/02 18:36:33;;;;;;;3.53;2.35;;;33.20;41.30;;;;;;10065543;28;20040;-61
2022/08/02 18:41:24;;;;;;;6.53;2.95;;;33.10;41.50;;;;;;10067352;28;20032;-60
2022/08/02 18:46:15;;;;;;;3.33;2.47;;;33.00;41.70;;;;;;10075367;28;20018;-62
2022/08/02 18:51:07;;;;;;;3.17;2.20;;;32.90;41.90;;;;;;10062103;28;20214;-62
2022/08/02 18:55:58;;;;;;;3.03;1.95;;;32.80;41.90;;;;;;10071284;28;20043;-64
2022/08/02 19:00:49;;;;;;;4.25;2.28;;;32.50;42.20;;;;;;10060782;28;20431;-60
2022/08/02 19:05:41;;;;;;;7.65;4.00;;;32.40;42.40;;;;;;10073176;28;20367;-60
2022/08/02 19:10:35;;;;;;;6.43;3.25;;;32.30;42.60;;;;;;10070578;28;20095;-60
2022/08/02 19:15:25;;;;;;;8.77;5.30;;;32.20;42.90;;;;;;10064545;28;20079;-63
2022/08/02 19:20:16;;;;;;;5.15;3.28;;;32.10;43.10;;;;;;10060283;28;20350;-62
2022/08/02 19:25:07;;;;;;;2.85;2.30;;;32.00;43.50;;;;;;10059255;28;20116;-60
2022/08/02 19:29:58;;;;;;;3.13;2.30;;;31.90;43.60;;;;;;10066239;28;20040;-62
2022/08/02 19:34:48;;;;;;;3.75;2.30;;;31.70;44.00;;;;;;10049108;28;20238;-62
2022/08/02 19:39:40;;;;;;;2.63;2.13;;;31.50;44.40;;;;;;10061876;28;20033;-63
2022/08/02 19:44:31;;;;;;;4.25;2.10;;;31.40;44.60;;;;;;10046564;28;20021;-63
2022/08/02 19:49:22;;;;;;;5.97;4.65;;;31.30;44.90;;;;;;10048341;28;20659;-62
2022/08/02 19:54:12;;;;;;;5.95;3.22;;;31.20;45.10;;;;;;10069996;28;20067;-63
2022/08/02 19:59:06;;;;;;;3.92;2.70;;;31.20;45.30;;;;;;10075093;28;20390;-61
2022/08/02 20:03:57;;;;;;;6.13;3.22;;;31.10;45.70;;;;;;10065921;28;20033;-63
2022/08/02 20:08:47;;;;;;;4.03;2.20;;;31.10;46.10;;;;;;10062372;28;20277;-62
2022/08/02 20:13:38;;;;;;;3.90;2.60;;;31.00;46.30;;;;;;10060006;28;20414;-61
2022/08/02 20:18:30;;;;;;;3.97;2.80;;;30.80;46.60;;;;;;10059591;28;20032;-61
2022/08/02 20:23:22;;;;;;;3.95;3.20;;;30.70;47.00;;;;;;10052131;28;20056;-61
2022/08/02 20:28:13;;;;;;;5.72;4.50;;;30.70;47.30;;;;;;10071954;28;20104;-65
2022/08/02 20:33:06;;;;;;;3.35;2.65;;;30.60;47.50;;;;;;10065694;28;20084;-63
2022/08/02 20:37:58;;;;;;;4.83;3.23;;;30.50;47.80;;;;;;10058455;28;20021;-61
2022/08/02 20:42:49;;;;;;;4.15;2.53;;;30.40;47.90;;;;;;10058200;28;20128;-61
2022/08/02 20:47:41;;;;;;;3.60;2.28;;;30.40;48.30;;;;;;10072150;28;20013;-64
2022/08/02 20:52:31;;;;;;;4.80;2.53;;;30.30;48.50;;;;;;10052686;28;20030;-61
2022/08/02 20:57:22;;;;;;;4.10;3.08;;;30.20;48.60;;;;;;10068238;28;20042;-63
2022/08/02 21:02:13;;;;;;;7.50;3.33;;;30.20;49.00;;;;;;10059232;28;20046;-62
2022/08/02 21:07:05;;;;;;;5.35;3.10;;;30.10;49.20;;;;;;10071056;28;20025;-64
2022/08/02 21:11:56;;;;;;;2.60;2.10;;;30.00;49.60;;;;;;10069582;28;20033;-66
2022/08/02 21:16:46;;;;;;;6.03;2.40;;;30.10;49.90;;;;;;10050074;28;20125;-64
2022/08/02 21:21:37;;;;;;;3.67;2.15;;;30.10;50.00;;;;;;10057668;28;20032;-64
2022/08/02 21:26:28;;;;;;;4.40;1.98;;;30.10;50.50;;;;;;10060337;28;20405;-64
2022/08/02 21:31:18;;;;;;;2.25;1.88;;;30.00;50.70;;;;;;10077513;28;20069;-65
2022/08/02 21:36:09;;;;;;;3.85;2.20;;;29.90;51.10;;;;;;10068517;28;20097;-63
2022/08/02 21:41:00;;;;;;;4.50;2.10;;;29.70;51.30;;;;;;10074470;28;20033;-61
2022/08/02 21:45:50;;;;;;;2.33;1.95;;;29.60;51.40;;;;;;10069661;28;20040;-62
2022/08/02 21:50:41;;;;;;;2.75;2.17;;;29.50;51.40;;;;;;10056943;28;20041;-68
2022/08/02 21:55:32;;;;;;;3.50;2.38;;;29.30;51.80;;;;;;10053544;28;20045;-67
2022/08/02 22:00:23;;;;;;;4.45;1.92;;;29.40;51.70;;;;;;10064600;28;20037;-67
2022/08/02 22:05:14;;;;;;;5.57;2.47;;;29.40;51.80;;;;;;10063285;28;20080;-67
2022/08/02 22:10:07;;;;;;;3.40;2.08;;;29.40;52.20;;;;;;10058013;28;20108;-65
2022/08/02 22:14:59;;;;;;;3.93;2.40;;;29.00;52.50;;;;;;10060033;28;20068;-66
2022/08/02 22:19:50;;;;;;;4.07;2.20;;;28.90;53.00;;;;;;10060403;28;20087;-66
2022/08/02 22:24:40;;;;;;;2.70;2.20;;;29.00;53.10;;;;;;10047783;28;20570;-61
2022/08/02 22:29:31;;;;;;;8.00;2.65;;;29.10;53.20;;;;;;10057596;28;20049;-66
2022/08/02 22:34:22;;;;;;;3.83;2.75;;;29.00;53.50;;;;;;10059686;28;20116;-66
2022/08/02 22:39:15;;;;;;;3.08;2.30;;;29.00;53.70;;;;;;10060455;28;20049;-66
2022/08/02 22:44:06;;;;;;;4.20;2.13;;;28.90;54.20;;;;;;10062271;28;20063;-67
2022/08/02 22:48:56;;;;;;;4.90;2.15;;;28.70;54.40;;;;;;10069888;28;20083;-67
2022/08/02 22:53:47;;;;;;;5.13;2.28;;;28.60;54.70;;;;;;10060602;28;20088;-67
2022/08/02 22:58:38;;;;;;;3.42;2.40;;;28.50;54.90;;;;;;10070119;28;20089;-66
2022/08/02 23:03:29;;;;;;;14.80;2.80;;;28.70;54.90;;;;;;10077469;28;20059;-67
2022/08/02 23:08:20;;;;;;;3.33;2.67;;;28.30;55.30;;;;;;10072995;28;20064;-67
2022/08/02 23:13:10;;;;;;;3.05;2.30;;;27.90;55.80;;;;;;10069383;28;20037;-66
2022/08/02 23:23:10;;;;;;;3.17;2.53;;;27.90;56.10;;;;;;10071712;28;20127;-67
2022/08/02 23:28:01;;;;;;;2.78;1.90;;;28.00;55.90;;;;;;10057123;28;20044;-68
2022/08/02 23:32:51;;;;;;;3.20;2.63;;;27.90;56.10;;;;;;10062270;28;20055;-67
2022/08/02 23:37:42;;;;;;;3.38;2.30;;;27.60;56.50;;;;;;10078791;28;20371;-66
2022/08/02 23:42:33;;;;;;;3.42;2.50;;;27.80;56.40;;;;;;10062652;28;20041;-67
2022/08/02 23:47:23;;;;;;;6.22;2.65;;;27.80;56.70;;;;;;10075010;28;20053;-67
2022/08/02 23:52:14;;;;;;;2.60;2.03;;;27.70;56.80;;;;;;10060980;28;20164;-66
2022/08/02 23:57:05;;;;;;;4.40;2.78;;;27.60;56.90;;;;;;10070982;28;20041;-66
